sensor_id;sensor_type;location;lat;lon;timestamp;P1;durP1;ratioP1;P2;durP2;ratioP2
30617;SDS011;17384;51.214;9.202;2023-06-14T00:00:30;6.55;;;3.97;;
30617;SDS011;17384;51.214;9.202;2023-06-14T00:02:56;7.95;;;3.83;;
30617;SDS011;17384;51.214;9.202;2023-06-14T00:05:22;12.98;;;3.60;;
30617;SDS011;17384;51.214;9.202;2023-06-14T00:07:48;6.45;;;3.80;;
30617;SDS011;17384;51.214;9.202;2023-06-14T00:10:14;8.50;;;4.15;;
30617;SDS011;17384;51.214;9.202;2023-06-14T00:12:40;7.90;;;3.67;;
30617;SDS011;17384;51.214;9.202;2023-06-14T00:15:07;8.65;;;3.72;;
30617;SDS011;17384;51.214;9.202;2023-06-14T00:17:35;7.15;;;4.53;;
30617;SDS011;17384;51.214;9.202;2023-06-14T00:20:02;5.95;;;3.45;;
30617;SDS011;17384;51.214;9.202;2023-06-14T00:22:33;7.63;;;3.85;;
30617;SDS011;17384;51.214;9.202;2023-06-14T00:24:59;5.75;;;3.90;;
30617;SDS011;17384;51.214;9.202;2023-06-14T00:27:24;7.05;;;4.13;;
30617;SDS011;17384;51.214;9.202;2023-06-14T00:29:50;7.32;;;3.83;;
30617;SDS011;17384;51.214;9.202;2023-06-14T00:32:17;7.25;;;4.72;;
30617;SDS011;17384;51.214;9.202;2023-06-14T00:34:43;6.60;;;4.45;;
30617;SDS011;17384;51.214;9.202;2023-06-14T00:37:09;9.73;;;4.70;;
30617;SDS011;17384;51.214;9.202;2023-06-14T00:39:34;8.18;;;4.35;;
30617;SDS011;17384;51.214;9.202;2023-06-14T00:42:00;10.52;;;5.07;;
30617;SDS011;17384;51.214;9.202;2023-06-14T00:44:25;10.25;;;4.78;;
30617;SDS011;17384;51.214;9.202;2023-06-14T00:46:51;11.55;;;5.30;;
30617;SDS011;17384;51.214;9.202;2023-06-14T00:49:16;9.00;;;4.35;;
30617;SDS011;17384;51.214;9.202;2023-06-14T00:51:43;6.88;;;4.68;;
30617;SDS011;17384;51.214;9.202;2023-06-14T00:54:10;6.80;;;4.32;;
30617;SDS011;17384;51.214;9.202;2023-06-14T00:56:36;10.05;;;5.13;;
30617;SDS011;17384;51.214;9.202;2023-06-14T00:59:02;11.23;;;4.75;;
30617;SDS011;17384;51.214;9.202;2023-06-14T01:01:28;10.93;;;4.80;;
30617;SDS011;17384;51.214;9.202;2023-06-14T01:03:58;7.25;;;4.72;;
30617;SDS011;17384;51.214;9.202;2023-06-14T01:06:41;6.63;;;4.40;;
30617;SDS011;17384;51.214;9.202;2023-06-14T01:12:13;8.68;;;5.03;;
30617;SDS011;17384;51.214;9.202;2023-06-14T01:14:42;9.05;;;5.53;;
30617;SDS011;17384;51.214;9.202;2023-06-14T01:17:08;7.25;;;4.85;;
30617;SDS011;17384;51.214;9.202;2023-06-14T01:19:41;8.23;;;5.23;;
30617;SDS011;17384;51.214;9.202;2023-06-14T01:22:07;7.65;;;4.47;;
30617;SDS011;17384;51.214;9.202;2023-06-14T01:24:34;10.77;;;4.97;;
30617;SDS011;17384;51.214;9.202;2023-06-14T01:27:00;7.65;;;5.35;;
30617;SDS011;17384;51.214;9.202;2023-06-14T01:29:27;11.40;;;5.35;;
30617;SDS011;17384;51.214;9.202;2023-06-14T01:31:58;15.00;;;6.05;;
30617;SDS011;17384;51.214;9.202;2023-06-14T01:34:24;7.63;;;5.05;;
30617;SDS011;17384;51.214;9.202;2023-06-14T01:36:50;8.80;;;5.25;;
30617;SDS011;17384;51.214;9.202;2023-06-14T01:39:19;12.02;;;5.13;;
30617;SDS011;17384;51.214;9.202;2023-06-14T01:41:47;10.02;;;5.72;;
30617;SDS011;17384;51.214;9.202;2023-06-14T01:44:16;10.63;;;4.97;;
30617;SDS011;17384;51.214;9.202;2023-06-14T01:46:43;8.10;;;5.03;;
30617;SDS011;17384;51.214;9.202;2023-06-14T01:49:10;8.98;;;5.63;;
30617;SDS011;17384;51.214;9.202;2023-06-14T01:51:36;10.32;;;5.20;;
30617;SDS011;17384;51.214;9.202;2023-06-14T01:54:01;8.23;;;5.25;;
30617;SDS011;17384;51.214;9.202;2023-06-14T01:56:27;8.23;;;5.15;;
30617;SDS011;17384;51.214;9.202;2023-06-14T01:58:52;8.23;;;5.40;;
30617;SDS011;17384;51.214;9.202;2023-06-14T02:01:19;7.93;;;5.43;;
30617;SDS011;17384;51.214;9.202;2023-06-14T02:03:46;18.02;;;7.13;;
30617;SDS011;17384;51.214;9.202;2023-06-14T02:06:13;9.15;;;4.88;;
30617;SDS011;17384;51.214;9.202;2023-06-14T02:08:40;10.43;;;5.47;;
30617;SDS011;17384;51.214;9.202;2023-06-14T02:11:07;10.82;;;5.70;;
30617;SDS011;17384;51.214;9.202;2023-06-14T02:13:33;8.63;;;5.50;;
30617;SDS011;17384;51.214;9.202;2023-06-14T02:15:59;11.02;;;5.45;;
30617;SDS011;17384;51.214;9.202;2023-06-14T02:18:25;9.43;;;5.53;;
30617;SDS011;17384;51.214;9.202;2023-06-14T02:20:51;9.52;;;5.50;;
30617;SDS011;17384;51.214;9.202;2023-06-14T02:23:16;11.40;;;5.90;;
30617;SDS011;17384;51.214;9.202;2023-06-14T02:25:42;7.82;;;5.28;;
30617;SDS011;17384;51.214;9.202;2023-06-14T02:28:09;10.55;;;5.53;;
30617;SDS011;17384;51.214;9.202;2023-06-14T02:30:35;11.05;;;6.28;;
30617;SDS011;17384;51.214;9.202;2023-06-14T02:33:01;9.80;;;4.80;;
30617;SDS011;17384;51.214;9.202;2023-06-14T02:35:26;7.40;;;5.53;;
30617;SDS011;17384;51.214;9.202;2023-06-14T02:37:52;7.95;;;4.65;;
30617;SDS011;17384;51.214;9.202;2023-06-14T02:40:19;11.32;;;5.07;;
30617;SDS011;17384;51.214;9.202;2023-06-14T02:42:45;12.77;;;5.07;;
30617;SDS011;17384;51.214;9.202;2023-06-14T02:45:10;7.28;;;5.28;;
30617;SDS011;17384;51.214;9.202;2023-06-14T02:47:36;9.27;;;5.22;;
30617;SDS011;17384;51.214;9.202;2023-06-14T02:50:01;7.35;;;4.85;;
30617;SDS011;17384;51.214;9.202;2023-06-14T02:52:27;8.18;;;5.38;;
30617;SDS011;17384;51.214;9.202;2023-06-14T02:54:53;6.55;;;5.28;;
30617;SDS011;17384;51.214;9.202;2023-06-14T02:57:20;8.60;;;5.40;;
30617;SDS011;17384;51.214;9.202;2023-06-14T02:59:46;8.32;;;5.18;;
30617;SDS011;17384;51.214;9.202;2023-06-14T03:02:12;13.73;;;5.68;;
30617;SDS011;17384;51.214;9.202;2023-06-14T03:04:38;7.45;;;5.72;;
30617;SDS011;17384;51.214;9.202;2023-06-14T03:07:03;8.30;;;5.60;;
30617;SDS011;17384;51.214;9.202;2023-06-14T03:09:37;7.50;;;4.95;;
30617;SDS011;17384;51.214;9.202;2023-06-14T03:12:03;15.98;;;5.35;;
30617;SDS011;17384;51.214;9.202;2023-06-14T03:14:30;9.10;;;5.13;;
30617;SDS011;17384;51.214;9.202;2023-06-14T03:16:56;9.82;;;5.25;;
30617;SDS011;17384;51.214;9.202;2023-06-14T03:19:22;7.40;;;5.53;;
30617;SDS011;17384;51.214;9.202;2023-06-14T03:21:48;8.07;;;5.65;;
30617;SDS011;17384;51.214;9.202;2023-06-14T03:24:14;11.52;;;6.20;;
30617;SDS011;17384;51.214;9.202;2023-06-14T03:26:41;6.93;;;4.55;;
30617;SDS011;17384;51.214;9.202;2023-06-14T03:29:07;8.48;;;5.95;;
30617;SDS011;17384;51.214;9.202;2023-06-14T03:31:34;9.40;;;5.68;;
30617;SDS011;17384;51.214;9.202;2023-06-14T03:34:00;12.25;;;7.20;;
30617;SDS011;17384;51.214;9.202;2023-06-14T03:36:26;7.90;;;5.88;;
30617;SDS011;17384;51.214;9.202;2023-06-14T03:38:53;9.55;;;5.97;;
30617;SDS011;17384;51.214;9.202;2023-06-14T03:41:19;7.38;;;5.47;;
30617;SDS011;17384;51.214;9.202;2023-06-14T03:43:44;9.25;;;5.63;;
30617;SDS011;17384;51.214;9.202;2023-06-14T03:46:10;9.43;;;5.03;;
30617;SDS011;17384;51.214;9.202;2023-06-14T03:48:35;12.27;;;5.82;;
30617;SDS011;17384;51.214;9.202;2023-06-14T03:51:01;9.63;;;5.30;;
30617;SDS011;17384;51.214;9.202;2023-06-14T03:53:27;13.23;;;6.30;;
30617;SDS011;17384;51.214;9.202;2023-06-14T03:55:54;9.55;;;5.38;;
30617;SDS011;17384;51.214;9.202;2023-06-14T03:58:19;12.90;;;5.60;;
30617;SDS011;17384;51.214;9.202;2023-06-14T04:00:45;7.90;;;5.05;;
30617;SDS011;17384;51.214;9.202;2023-06-14T04:03:11;7.70;;;4.80;;
30617;SDS011;17384;51.214;9.202;2023-06-14T04:05:38;15.27;;;5.50;;
30617;SDS011;17384;51.214;9.202;2023-06-14T04:08:07;6.72;;;5.32;;
30617;SDS011;17384;51.214;9.202;2023-06-14T04:10:39;9.32;;;5.57;;
30617;SDS011;17384;51.214;9.202;2023-06-14T04:13:06;7.18;;;5.25;;
30617;SDS011;17384;51.214;9.202;2023-06-14T04:15:32;15.57;;;5.70;;
30617;SDS011;17384;51.214;9.202;2023-06-14T04:17:58;6.90;;;5.30;;
30617;SDS011;17384;51.214;9.202;2023-06-14T04:20:23;7.97;;;5.22;;
30617;SDS011;17384;51.214;9.202;2023-06-14T04:22:50;10.60;;;5.60;;
30617;SDS011;17384;51.214;9.202;2023-06-14T04:25:15;6.85;;;4.95;;
30617;SDS011;17384;51.214;9.202;2023-06-14T04:27:41;9.23;;;5.30;;
30617;SDS011;17384;51.214;9.202;2023-06-14T04:30:07;16.52;;;5.85;;
30617;SDS011;17384;51.214;9.202;2023-06-14T04:32:33;6.97;;;4.57;;
30617;SDS011;17384;51.214;9.202;2023-06-14T04:35:03;8.80;;;5.18;;
30617;SDS011;17384;51.214;9.202;2023-06-14T04:37:28;12.27;;;5.05;;
30617;SDS011;17384;51.214;9.202;2023-06-14T04:39:55;10.30;;;4.93;;
30617;SDS011;17384;51.214;9.202;2023-06-14T04:42:21;9.88;;;5.03;;
30617;SDS011;17384;51.214;9.202;2023-06-14T04:44:50;8.52;;;4.40;;
30617;SDS011;17384;51.214;9.202;2023-06-14T04:47:16;7.43;;;4.80;;
30617;SDS011;17384;51.214;9.202;2023-06-14T04:49:43;6.50;;;4.28;;
30617;SDS011;17384;51.214;9.202;2023-06-14T04:52:08;7.90;;;5.25;;
30617;SDS011;17384;51.214;9.202;2023-06-14T04:54:35;7.45;;;4.50;;
30617;SDS011;17384;51.214;9.202;2023-06-14T04:57:03;9.38;;;4.75;;
30617;SDS011;17384;51.214;9.202;2023-06-14T04:59:30;11.60;;;4.43;;
30617;SDS011;17384;51.214;9.202;2023-06-14T05:01:58;7.50;;;3.53;;
30617;SDS011;17384;51.214;9.202;2023-06-14T05:04:25;8.20;;;3.72;;
30617;SDS011;17384;51.214;9.202;2023-06-14T05:06:52;8.57;;;3.38;;
30617;SDS011;17384;51.214;9.202;2023-06-14T05:09:19;5.97;;;3.58;;
30617;SDS011;17384;51.214;9.202;2023-06-14T05:11:45;5.32;;;3.85;;
30617;SDS011;17384;51.214;9.202;2023-06-14T05:14:12;7.10;;;3.15;;
30617;SDS011;17384;51.214;9.202;2023-06-14T05:16:38;10.90;;;3.75;;
30617;SDS011;17384;51.214;9.202;2023-06-14T05:19:05;3.42;;;2.30;;
30617;SDS011;17384;51.214;9.202;2023-06-14T05:21:31;6.50;;;3.00;;
30617;SDS011;17384;51.214;9.202;2023-06-14T05:23:58;7.45;;;3.15;;
30617;SDS011;17384;51.214;9.202;2023-06-14T05:26:24;4.20;;;2.53;;
30617;SDS011;17384;51.214;9.202;2023-06-14T05:28:53;5.70;;;2.60;;
30617;SDS011;17384;51.214;9.202;2023-06-14T05:31:23;4.03;;;2.75;;
30617;SDS011;17384;51.214;9.202;2023-06-14T05:33:49;5.35;;;2.95;;
30617;SDS011;17384;51.214;9.202;2023-06-14T05:36:15;3.90;;;2.70;;
30617;SDS011;17384;51.214;9.202;2023-06-14T05:38:40;4.50;;;2.60;;
30617;SDS011;17384;51.214;9.202;2023-06-14T05:41:05;3.20;;;2.45;;
30617;SDS011;17384;51.214;9.202;2023-06-14T05:43:31;7.28;;;2.70;;
30617;SDS011;17384;51.214;9.202;2023-06-14T05:45:56;5.32;;;2.58;;
30617;SDS011;17384;51.214;9.202;2023-06-14T05:48:22;7.90;;;2.53;;
30617;SDS011;17384;51.214;9.202;2023-06-14T05:50:47;4.30;;;2.40;;
30617;SDS011;17384;51.214;9.202;2023-06-14T05:53:13;8.73;;;2.58;;
30617;SDS011;17384;51.214;9.202;2023-06-14T05:55:38;3.28;;;2.40;;
30617;SDS011;17384;51.214;9.202;2023-06-14T05:58:04;4.25;;;2.38;;
30617;SDS011;17384;51.214;9.202;2023-06-14T06:00:29;4.07;;;2.13;;
30617;SDS011;17384;51.214;9.202;2023-06-14T06:02:55;2.80;;;2.05;;
30617;SDS011;17384;51.214;9.202;2023-06-14T06:05:22;3.17;;;2.20;;
30617;SDS011;17384;51.214;9.202;2023-06-14T06:07:48;4.30;;;2.30;;
30617;SDS011;17384;51.214;9.202;2023-06-14T06:10:14;4.47;;;2.22;;
30617;SDS011;17384;51.214;9.202;2023-06-14T06:12:41;5.00;;;2.33;;
30617;SDS011;17384;51.214;9.202;2023-06-14T06:15:07;3.45;;;2.28;;
30617;SDS011;17384;51.214;9.202;2023-06-14T06:17:32;2.40;;;2.20;;
30617;SDS011;17384;51.214;9.202;2023-06-14T06:19:58;3.15;;;2.50;;
30617;SDS011;17384;51.214;9.202;2023-06-14T06:22:24;6.28;;;2.65;;
30617;SDS011;17384;51.214;9.202;2023-06-14T06:24:49;8.18;;;3.25;;
30617;SDS011;17384;51.214;9.202;2023-06-14T06:27:15;5.13;;;2.28;;
30617;SDS011;17384;51.214;9.202;2023-06-14T06:29:42;5.22;;;2.78;;
30617;SDS011;17384;51.214;9.202;2023-06-14T06:32:09;3.15;;;2.55;;
30617;SDS011;17384;51.214;9.202;2023-06-14T06:34:34;5.85;;;3.10;;
30617;SDS011;17384;51.214;9.202;2023-06-14T06:37:02;4.47;;;2.92;;
30617;SDS011;17384;51.214;9.202;2023-06-14T06:39:27;11.00;;;3.40;;
30617;SDS011;17384;51.214;9.202;2023-06-14T06:41:53;6.40;;;3.13;;
30617;SDS011;17384;51.214;9.202;2023-06-14T06:44:18;3.83;;;2.80;;
30617;SDS011;17384;51.214;9.202;2023-06-14T06:46:44;8.05;;;4.30;;
30617;SDS011;17384;51.214;9.202;2023-06-14T06:49:09;6.55;;;3.28;;
30617;SDS011;17384;51.214;9.202;2023-06-14T06:51:36;5.72;;;3.83;;
30617;SDS011;17384;51.214;9.202;2023-06-14T06:54:02;5.50;;;3.78;;
30617;SDS011;17384;51.214;9.202;2023-06-14T06:56:28;4.38;;;3.38;;
30617;SDS011;17384;51.214;9.202;2023-06-14T06:58:53;8.10;;;3.80;;
30617;SDS011;17384;51.214;9.202;2023-06-14T07:01:19;9.80;;;4.00;;
30617;SDS011;17384;51.214;9.202;2023-06-14T07:03:45;5.60;;;3.78;;
30617;SDS011;17384;51.214;9.202;2023-06-14T07:06:11;6.22;;;4.13;;
30617;SDS011;17384;51.214;9.202;2023-06-14T07:08:37;15.23;;;4.32;;
30617;SDS011;17384;51.214;9.202;2023-06-14T07:11:03;7.60;;;3.85;;
30617;SDS011;17384;51.214;9.202;2023-06-14T07:13:30;10.82;;;3.72;;
30617;SDS011;17384;51.214;9.202;2023-06-14T07:15:57;5.55;;;4.28;;
30617;SDS011;17384;51.214;9.202;2023-06-14T07:18:23;7.25;;;4.32;;
30617;SDS011;17384;51.214;9.202;2023-06-14T07:20:49;4.32;;;3.38;;
30617;SDS011;17384;51.214;9.202;2023-06-14T07:23:15;10.20;;;4.35;;
30617;SDS011;17384;51.214;9.202;2023-06-14T07:25:40;5.00;;;3.75;;
30617;SDS011;17384;51.214;9.202;2023-06-14T07:28:06;4.53;;;3.30;;
30617;SDS011;17384;51.214;9.202;2023-06-14T07:30:32;7.05;;;4.22;;
30617;SDS011;17384;51.214;9.202;2023-06-14T07:32:57;8.15;;;3.97;;
30617;SDS011;17384;51.214;9.202;2023-06-14T07:35:23;15.68;;;4.32;;
30617;SDS011;17384;51.214;9.202;2023-06-14T07:37:48;8.30;;;3.90;;
30617;SDS011;17384;51.214;9.202;2023-06-14T07:40:14;10.77;;;3.85;;
30617;SDS011;17384;51.214;9.202;2023-06-14T07:42:40;8.95;;;4.13;;
30617;SDS011;17384;51.214;9.202;2023-06-14T07:45:05;7.75;;;3.70;;
30617;SDS011;17384;51.214;9.202;2023-06-14T07:47:32;5.63;;;3.83;;
30617;SDS011;17384;51.214;9.202;2023-06-14T07:49:57;6.97;;;3.63;;
30617;SDS011;17384;51.214;9.202;2023-06-14T07:52:23;10.52;;;3.80;;
30617;SDS011;17384;51.214;9.202;2023-06-14T07:54:48;11.23;;;4.32;;
30617;SDS011;17384;51.214;9.202;2023-06-14T07:57:14;12.75;;;3.88;;
30617;SDS011;17384;51.214;9.202;2023-06-14T07:59:40;8.35;;;4.03;;
30617;SDS011;17384;51.214;9.202;2023-06-14T08:02:05;6.15;;;4.00;;
30617;SDS011;17384;51.214;9.202;2023-06-14T08:04:31;7.07;;;3.70;;
30617;SDS011;17384;51.214;9.202;2023-06-14T08:06:57;10.48;;;3.95;;
30617;SDS011;17384;51.214;9.202;2023-06-14T08:11:51;6.53;;;4.07;;
30617;SDS011;17384;51.214;9.202;2023-06-14T08:14:17;17.98;;;4.13;;
30617;SDS011;17384;51.214;9.202;2023-06-14T08:16:42;5.38;;;3.65;;
30617;SDS011;17384;51.214;9.202;2023-06-14T08:19:08;4.50;;;3.53;;
30617;SDS011;17384;51.214;9.202;2023-06-14T08:21:33;7.07;;;3.72;;
30617;SDS011;17384;51.214;9.202;2023-06-14T08:24:01;9.07;;;3.70;;
30617;SDS011;17384;51.214;9.202;2023-06-14T08:26:27;6.63;;;3.95;;
30617;SDS011;17384;51.214;9.202;2023-06-14T08:28:56;9.10;;;4.20;;
30617;SDS011;17384;51.214;9.202;2023-06-14T08:31:22;7.20;;;3.85;;
30617;SDS011;17384;51.214;9.202;2023-06-14T08:33:48;5.38;;;3.58;;
30617;SDS011;17384;51.214;9.202;2023-06-14T08:36:14;7.53;;;4.68;;
30617;SDS011;17384;51.214;9.202;2023-06-14T08:38:39;5.72;;;3.88;;
30617;SDS011;17384;51.214;9.202;2023-06-14T08:41:05;8.65;;;3.88;;
30617;SDS011;17384;51.214;9.202;2023-06-14T08:43:31;7.00;;;3.53;;
30617;SDS011;17384;51.214;9.202;2023-06-14T08:45:58;7.93;;;4.20;;
30617;SDS011;17384;51.214;9.202;2023-06-14T08:48:27;9.77;;;4.18;;
30617;SDS011;17384;51.214;9.202;2023-06-14T08:50:56;9.93;;;3.53;;
30617;SDS011;17384;51.214;9.202;2023-06-14T08:53:30;8.05;;;3.88;;
30617;SDS011;17384;51.214;9.202;2023-06-14T08:55:57;9.77;;;4.07;;
30617;SDS011;17384;51.214;9.202;2023-06-14T08:58:26;5.95;;;3.60;;
30617;SDS011;17384;51.214;9.202;2023-06-14T09:00:56;5.65;;;3.78;;
30617;SDS011;17384;51.214;9.202;2023-06-14T09:03:23;10.90;;;3.45;;
30617;SDS011;17384;51.214;9.202;2023-06-14T09:05:57;4.72;;;3.50;;
30617;SDS011;17384;51.214;9.202;2023-06-14T09:08:28;5.35;;;3.63;;
30617;SDS011;17384;51.214;9.202;2023-06-14T09:10:55;5.80;;;3.47;;
30617;SDS011;17384;51.214;9.202;2023-06-14T09:13:21;4.43;;;3.30;;
30617;SDS011;17384;51.214;9.202;2023-06-14T09:15:47;6.05;;;3.50;;
30617;SDS011;17384;51.214;9.202;2023-06-14T09:18:13;7.85;;;3.58;;
30617;SDS011;17384;51.214;9.202;2023-06-14T09:20:38;18.42;;;3.67;;
30617;SDS011;17384;51.214;9.202;2023-06-14T09:23:05;4.15;;;3.33;;
30617;SDS011;17384;51.214;9.202;2023-06-14T09:25:30;4.60;;;3.30;;
30617;SDS011;17384;51.214;9.202;2023-06-14T09:27:56;5.68;;;3.53;;
30617;SDS011;17384;51.214;9.202;2023-06-14T09:30:21;5.07;;;3.33;;
30617;SDS011;17384;51.214;9.202;2023-06-14T09:32:47;6.60;;;3.25;;
30617;SDS011;17384;51.214;9.202;2023-06-14T09:35:20;10.98;;;2.80;;
30617;SDS011;17384;51.214;9.202;2023-06-14T09:37:45;9.27;;;3.38;;
30617;SDS011;17384;51.214;9.202;2023-06-14T09:40:12;5.43;;;3.20;;
30617;SDS011;17384;51.214;9.202;2023-06-14T09:42:37;7.07;;;3.72;;
30617;SDS011;17384;51.214;9.202;2023-06-14T09:45:03;4.05;;;3.17;;
30617;SDS011;17384;51.214;9.202;2023-06-14T09:47:29;8.32;;;3.85;;
30617;SDS011;17384;51.214;9.202;2023-06-14T09:49:55;8.90;;;3.10;;
30617;SDS011;17384;51.214;9.202;2023-06-14T09:52:20;6.63;;;3.13;;
30617;SDS011;17384;51.214;9.202;2023-06-14T09:54:48;7.97;;;3.42;;
30617;SDS011;17384;51.214;9.202;2023-06-14T09:57:20;9.02;;;3.45;;
30617;SDS011;17384;51.214;9.202;2023-06-14T09:59:47;8.50;;;3.10;;
30617;SDS011;17384;51.214;9.202;2023-06-14T10:02:26;7.07;;;3.50;;
30617;SDS011;17384;51.214;9.202;2023-06-14T10:05:04;5.85;;;3.17;;
30617;SDS011;17384;51.214;9.202;2023-06-14T10:07:52;3.70;;;3.25;;
30617;SDS011;17384;51.214;9.202;2023-06-14T10:10:21;3.88;;;3.28;;
30617;SDS011;17384;51.214;9.202;2023-06-14T10:12:47;4.95;;;3.42;;
30617;SDS011;17384;51.214;9.202;2023-06-14T10:15:18;5.15;;;3.45;;
30617;SDS011;17384;51.214;9.202;2023-06-14T10:20:55;3.85;;;2.70;;
30617;SDS011;17384;51.214;9.202;2023-06-14T10:23:32;9.75;;;2.85;;
30617;SDS011;17384;51.214;9.202;2023-06-14T10:26:02;5.60;;;2.88;;
30617;SDS011;17384;51.214;9.202;2023-06-14T10:28:27;5.65;;;3.00;;
30617;SDS011;17384;51.214;9.202;2023-06-14T10:31:05;3.65;;;3.00;;
30617;SDS011;17384;51.214;9.202;2023-06-14T10:33:39;6.15;;;3.00;;
30617;SDS011;17384;51.214;9.202;2023-06-14T10:39:00;7.15;;;3.08;;
30617;SDS011;17384;51.214;9.202;2023-06-14T10:41:36;8.63;;;3.40;;
30617;SDS011;17384;51.214;9.202;2023-06-14T10:46:48;6.20;;;3.78;;
30617;SDS011;17384;51.214;9.202;2023-06-14T10:49:18;5.68;;;3.38;;
30617;SDS011;17384;51.214;9.202;2023-06-14T10:51:45;3.33;;;3.03;;
30617;SDS011;17384;51.214;9.202;2023-06-14T10:54:14;6.72;;;2.97;;
30617;SDS011;17384;51.214;9.202;2023-06-14T10:56:47;6.07;;;3.10;;
30617;SDS011;17384;51.214;9.202;2023-06-14T11:04:48;4.00;;;3.33;;
30617;SDS011;17384;51.214;9.202;2023-06-14T11:07:38;5.82;;;3.28;;
30617;SDS011;17384;51.214;9.202;2023-06-14T11:10:31;5.88;;;3.53;;
30617;SDS011;17384;51.214;9.202;2023-06-14T11:13:05;3.53;;;2.92;;
30617;SDS011;17384;51.214;9.202;2023-06-14T11:15:35;6.55;;;3.53;;
30617;SDS011;17384;51.214;9.202;2023-06-14T11:18:01;3.92;;;3.13;;
30617;SDS011;17384;51.214;9.202;2023-06-14T11:20:29;4.55;;;3.45;;
30617;SDS011;17384;51.214;9.202;2023-06-14T11:22:56;3.80;;;3.22;;
30617;SDS011;17384;51.214;9.202;2023-06-14T11:25:22;10.57;;;3.55;;
30617;SDS011;17384;51.214;9.202;2023-06-14T11:27:51;7.95;;;3.83;;
30617;SDS011;17384;51.214;9.202;2023-06-14T11:30:17;6.32;;;3.40;;
30617;SDS011;17384;51.214;9.202;2023-06-14T11:32:47;3.60;;;2.90;;
30617;SDS011;17384;51.214;9.202;2023-06-14T11:35:17;6.00;;;3.22;;
30617;SDS011;17384;51.214;9.202;2023-06-14T11:37:43;7.03;;;3.22;;
30617;SDS011;17384;51.214;9.202;2023-06-14T11:40:12;7.15;;;3.08;;
30617;SDS011;17384;51.214;9.202;2023-06-14T11:42:39;6.60;;;2.92;;
30617;SDS011;17384;51.214;9.202;2023-06-14T11:45:09;10.55;;;3.55;;
30617;SDS011;17384;51.214;9.202;2023-06-14T11:47:36;5.97;;;3.30;;
30617;SDS011;17384;51.214;9.202;2023-06-14T11:50:03;4.35;;;2.70;;
30617;SDS011;17384;51.214;9.202;2023-06-14T11:52:30;6.30;;;2.85;;
30617;SDS011;17384;51.214;9.202;2023-06-14T11:54:56;5.75;;;2.60;;
30617;SDS011;17384;51.214;9.202;2023-06-14T11:57:22;3.83;;;3.50;;
30617;SDS011;17384;51.214;9.202;2023-06-14T11:59:49;5.65;;;3.13;;
30617;SDS011;17384;51.214;9.202;2023-06-14T12:02:15;3.95;;;2.92;;
30617;SDS011;17384;51.214;9.202;2023-06-14T12:04:41;4.70;;;2.70;;
30617;SDS011;17384;51.214;9.202;2023-06-14T12:12:22;4.30;;;2.78;;
30617;SDS011;17384;51.214;9.202;2023-06-14T12:14:50;4.90;;;3.00;;
30617;SDS011;17384;51.214;9.202;2023-06-14T12:17:17;4.88;;;3.10;;
30617;SDS011;17384;51.214;9.202;2023-06-14T12:19:43;4.47;;;2.72;;
30617;SDS011;17384;51.214;9.202;2023-06-14T12:22:10;8.55;;;3.38;;
30617;SDS011;17384;51.214;9.202;2023-06-14T12:24:36;5.72;;;3.00;;
30617;SDS011;17384;51.214;9.202;2023-06-14T12:27:03;6.13;;;3.45;;
30617;SDS011;17384;51.214;9.202;2023-06-14T12:29:29;4.45;;;3.33;;
30617;SDS011;17384;51.214;9.202;2023-06-14T12:31:55;5.07;;;3.30;;
30617;SDS011;17384;51.214;9.202;2023-06-14T12:34:25;7.68;;;3.38;;
30617;SDS011;17384;51.214;9.202;2023-06-14T12:36:52;3.78;;;3.17;;
30617;SDS011;17384;51.214;9.202;2023-06-14T12:39:18;5.18;;;3.13;;
30617;SDS011;17384;51.214;9.202;2023-06-14T12:41:44;4.22;;;3.10;;
30617;SDS011;17384;51.214;9.202;2023-06-14T12:44:10;14.27;;;3.80;;
30617;SDS011;17384;51.214;9.202;2023-06-14T12:46:36;4.00;;;2.80;;
30617;SDS011;17384;51.214;9.202;2023-06-14T12:49:04;7.78;;;3.55;;
30617;SDS011;17384;51.214;9.202;2023-06-14T12:51:30;6.07;;;3.40;;
30617;SDS011;17384;51.214;9.202;2023-06-14T12:53:56;5.78;;;3.45;;
30617;SDS011;17384;51.214;9.202;2023-06-14T12:56:22;7.15;;;3.80;;
30617;SDS011;17384;51.214;9.202;2023-06-14T12:58:47;6.93;;;3.33;;
30617;SDS011;17384;51.214;9.202;2023-06-14T13:01:13;6.03;;;3.80;;
30617;SDS011;17384;51.214;9.202;2023-06-14T13:03:38;10.52;;;3.83;;
30617;SDS011;17384;51.214;9.202;2023-06-14T13:06:04;7.85;;;3.70;;
30617;SDS011;17384;51.214;9.202;2023-06-14T13:08:30;6.50;;;3.50;;
30617;SDS011;17384;51.214;9.202;2023-06-14T13:10:56;11.23;;;4.63;;
30617;SDS011;17384;51.214;9.202;2023-06-14T13:13:22;7.25;;;4.28;;
30617;SDS011;17384;51.214;9.202;2023-06-14T13:15:48;5.78;;;3.55;;
30617;SDS011;17384;51.214;9.202;2023-06-14T13:18:15;5.05;;;3.75;;
30617;SDS011;17384;51.214;9.202;2023-06-14T13:20:41;4.07;;;3.58;;
30617;SDS011;17384;51.214;9.202;2023-06-14T13:23:07;5.38;;;3.22;;
30617;SDS011;17384;51.214;9.202;2023-06-14T13:25:34;5.70;;;3.80;;
30617;SDS011;17384;51.214;9.202;2023-06-14T13:28:00;8.13;;;3.58;;
30617;SDS011;17384;51.214;9.202;2023-06-14T13:30:25;10.23;;;4.40;;
30617;SDS011;17384;51.214;9.202;2023-06-14T13:32:51;8.35;;;4.30;;
30617;SDS011;17384;51.214;9.202;2023-06-14T13:35:20;5.90;;;4.55;;
30617;SDS011;17384;51.214;9.202;2023-06-14T13:37:45;6.88;;;4.40;;
30617;SDS011;17384;51.214;9.202;2023-06-14T13:40:11;11.32;;;4.63;;
30617;SDS011;17384;51.214;9.202;2023-06-14T13:42:37;4.95;;;3.50;;
30617;SDS011;17384;51.214;9.202;2023-06-14T13:45:03;7.13;;;3.63;;
30617;SDS011;17384;51.214;9.202;2023-06-14T13:47:29;4.57;;;3.47;;
30617;SDS011;17384;51.214;9.202;2023-06-14T13:49:56;5.38;;;3.22;;
30617;SDS011;17384;51.214;9.202;2023-06-14T13:52:21;9.57;;;4.05;;
30617;SDS011;17384;51.214;9.202;2023-06-14T13:54:47;4.45;;;3.88;;
30617;SDS011;17384;51.214;9.202;2023-06-14T13:57:13;7.03;;;4.03;;
30617;SDS011;17384;51.214;9.202;2023-06-14T13:59:41;4.88;;;3.38;;
30617;SDS011;17384;51.214;9.202;2023-06-14T14:02:09;4.63;;;3.38;;
30617;SDS011;17384;51.214;9.202;2023-06-14T14:04:34;5.07;;;3.92;;
30617;SDS011;17384;51.214;9.202;2023-06-14T14:07:01;5.75;;;3.70;;
30617;SDS011;17384;51.214;9.202;2023-06-14T14:09:27;3.85;;;3.45;;
30617;SDS011;17384;51.214;9.202;2023-06-14T14:11:53;3.00;;;2.65;;
30617;SDS011;17384;51.214;9.202;2023-06-14T14:14:19;4.40;;;2.40;;
30617;SDS011;17384;51.214;9.202;2023-06-14T14:16:45;7.55;;;2.80;;
30617;SDS011;17384;51.214;9.202;2023-06-14T14:19:10;4.88;;;3.25;;
30617;SDS011;17384;51.214;9.202;2023-06-14T14:21:36;3.92;;;2.95;;
30617;SDS011;17384;51.214;9.202;2023-06-14T14:24:02;3.42;;;3.10;;
30617;SDS011;17384;51.214;9.202;2023-06-14T14:26:28;3.10;;;2.70;;
30617;SDS011;17384;51.214;9.202;2023-06-14T14:28:54;10.73;;;3.33;;
30617;SDS011;17384;51.214;9.202;2023-06-14T14:31:19;6.07;;;3.47;;
30617;SDS011;17384;51.214;9.202;2023-06-14T14:33:45;7.50;;;3.65;;
30617;SDS011;17384;51.214;9.202;2023-06-14T14:36:10;2.92;;;2.45;;
30617;SDS011;17384;51.214;9.202;2023-06-14T14:38:35;12.40;;;3.13;;
30617;SDS011;17384;51.214;9.202;2023-06-14T14:41:01;8.38;;;3.58;;
30617;SDS011;17384;51.214;9.202;2023-06-14T14:43:26;3.83;;;2.97;;
30617;SDS011;17384;51.214;9.202;2023-06-14T14:45:55;4.50;;;2.88;;
30617;SDS011;17384;51.214;9.202;2023-06-14T14:48:20;6.15;;;2.80;;
30617;SDS011;17384;51.214;9.202;2023-06-14T14:50:46;3.67;;;2.65;;
30617;SDS011;17384;51.214;9.202;2023-06-14T14:53:11;2.50;;;2.10;;
30617;SDS011;17384;51.214;9.202;2023-06-14T14:55:36;3.97;;;2.28;;
30617;SDS011;17384;51.214;9.202;2023-06-14T14:58:03;4.95;;;2.85;;
30617;SDS011;17384;51.214;9.202;2023-06-14T15:00:28;4.68;;;2.55;;
30617;SDS011;17384;51.214;9.202;2023-06-14T15:02:54;3.15;;;2.55;;
30617;SDS011;17384;51.214;9.202;2023-06-14T15:05:20;3.30;;;2.53;;
30617;SDS011;17384;51.214;9.202;2023-06-14T15:07:45;2.72;;;2.17;;